createdAt,value
2022-11-24T00:01:32.009Z,99.90
2022-11-24T00:04:18.050Z,99.90
2022-11-24T00:07:03.908Z,99.90
2022-11-24T00:09:49.967Z,99.90
2022-11-24T00:12:35.846Z,99.90
2022-11-24T00:15:21.885Z,99.90
2022-11-24T00:18:08.006Z,99.90
2022-11-24T00:20:53.920Z,99.90
2022-11-24T00:23:40.042Z,99.90
2022-11-24T00:26:31.895Z,99.90
2022-11-24T00:29:17.965Z,99.90
2022-11-24T00:32:06.508Z,99.70
2022-11-24T00:34:52.791Z,99.80
2022-11-24T00:37:38.966Z,99.80
2022-11-24T00:40:24.871Z,99.80
2022-11-24T00:43:10.965Z,99.70
2022-11-24T00:45:57.120Z,99.50
2022-11-24T00:48:45.306Z,99.50
2022-11-24T00:51:31.526Z,99.60
2022-11-24T00:54:18.180Z,99.60
2022-11-24T00:57:04.171Z,99.80
2022-11-24T00:59:50.019Z,99.80
2022-11-24T01:02:35.822Z,99.70
2022-11-24T01:05:21.816Z,99.60
2022-11-24T01:08:08.024Z,99.60
2022-11-24T01:10:54.232Z,99.90
2022-11-24T01:13:41.747Z,99.90
2022-11-24T01:16:35.219Z,99.90
2022-11-24T01:19:22.047Z,99.90
2022-11-24T01:22:07.915Z,99.90
2022-11-24T01:24:53.966Z,99.90
2022-11-24T01:27:40.069Z,99.90
2022-11-24T01:30:26.040Z,99.90
2022-11-24T01:33:12.082Z,99.90
2022-11-24T01:35:58.892Z,99.90
2022-11-24T01:38:44.942Z,99.90
2022-11-24T01:41:31.145Z,99.90
2022-11-24T01:44:36.090Z,99.90
2022-11-24T01:47:40.809Z,99.90
2022-11-24T01:50:27.182Z,99.90
2022-11-24T01:53:14.695Z,99.90
2022-11-24T01:56:00.738Z,99.90
2022-11-24T01:58:48.565Z,99.80
2022-11-24T02:01:35.131Z,99.80
2022-11-24T02:04:23.897Z,99.60
2022-11-24T02:07:11.872Z,99.50
2022-11-24T02:10:04.778Z,99.60
2022-11-24T02:12:54.033Z,99.50
2022-11-24T02:15:40.048Z,99.40
2022-11-24T02:18:25.981Z,99.30
2022-11-24T02:21:15.112Z,99.30
2022-11-24T02:24:12.661Z,99.60
2022-11-24T02:26:59.208Z,99.30
2022-11-24T02:29:45.601Z,99.40
2022-11-24T02:32:33.020Z,99.30
2022-11-24T02:35:20.203Z,99.20
2022-11-24T02:38:06.492Z,99.10
2022-11-24T02:40:52.770Z,99.30
2022-11-24T02:43:54.654Z,99.20
2022-11-24T02:46:40.725Z,99.10
2022-11-24T02:49:26.712Z,99.10
2022-11-24T02:52:12.543Z,99.10
2022-11-24T02:54:58.481Z,99.20
2022-11-24T02:57:44.536Z,99.10
2022-11-24T03:00:30.573Z,99.10
2022-11-24T03:03:16.851Z,99.00
2022-11-24T03:06:03.154Z,99.00
2022-11-24T03:08:49.110Z,98.80
2022-11-24T03:11:35.241Z,99.10
2022-11-24T03:14:21.158Z,99.00
2022-11-24T03:17:07.342Z,98.90
2022-11-24T03:19:53.481Z,99.10
2022-11-24T03:22:39.540Z,99.00
2022-11-24T03:25:25.809Z,99.20
2022-11-24T03:28:13.453Z,99.40
2022-11-24T03:30:59.814Z,99.10
2022-11-24T03:33:45.843Z,99.30
2022-11-24T03:36:31.824Z,99.10
2022-11-24T03:39:17.800Z,99.00
2022-11-24T03:42:03.969Z,99.20
2022-11-24T03:44:49.924Z,99.20
2022-11-24T03:47:35.929Z,98.90
2022-11-24T03:50:21.992Z,99.10
2022-11-24T03:53:08.445Z,99.10
2022-11-24T03:55:54.882Z,99.30
2022-11-24T03:58:41.268Z,99.20
2022-11-24T04:01:27.407Z,99.30
2022-11-24T04:04:13.958Z,99.50
2022-11-24T04:06:59.921Z,99.40
2022-11-24T04:09:45.880Z,99.40
2022-11-24T04:12:44.030Z,99.70
2022-11-24T04:15:30.385Z,99.50
2022-11-24T04:18:16.380Z,99.50
2022-11-24T04:21:02.852Z,99.40
2022-11-24T04:23:49.049Z,99.50
2022-11-24T04:26:35.265Z,99.30
2022-11-24T04:29:21.222Z,99.10
2022-11-24T04:32:07.288Z,99.30
2022-11-24T04:34:53.513Z,99.30
2022-11-24T04:37:39.740Z,99.10
2022-11-24T04:40:26.076Z,99.30
2022-11-24T04:43:12.193Z,98.90
2022-11-24T04:46:01.959Z,98.90
2022-11-24T04:48:47.792Z,98.90
2022-11-24T04:51:33.753Z,99.10
2022-11-24T04:54:19.861Z,98.90
2022-11-24T04:57:05.773Z,98.90
2022-11-24T04:59:52.748Z,98.80
2022-11-24T05:02:39.273Z,98.90
2022-11-24T05:05:25.328Z,98.80
2022-11-24T05:08:11.427Z,98.80
2022-11-24T05:10:57.381Z,99.00
2022-11-24T05:13:43.429Z,99.00
2022-11-24T05:16:29.968Z,99.00
2022-11-24T05:19:16.041Z,99.10
2022-11-24T05:22:02.014Z,99.10
2022-11-24T05:24:47.947Z,99.30
2022-11-24T05:27:34.052Z,99.20
2022-11-24T05:30:20.138Z,99.30
2022-11-24T05:33:16.129Z,99.50
2022-11-24T05:36:03.945Z,99.60
2022-11-24T05:38:49.898Z,99.70
2022-11-24T05:41:35.946Z,99.70
2022-11-24T05:44:21.919Z,99.80
2022-11-24T05:47:08.384Z,99.70
2022-11-24T05:49:54.471Z,99.60
2022-11-24T05:52:40.623Z,99.70
2022-11-24T05:55:26.736Z,99.50
2022-11-24T05:58:12.644Z,99.60
2022-11-24T06:00:58.740Z,99.50
2022-11-24T06:03:44.954Z,99.40
2022-11-24T06:06:30.890Z,99.50
2022-11-24T06:09:17.444Z,99.40
2022-11-24T06:12:04.804Z,99.30
2022-11-24T06:14:51.129Z,99.20
2022-11-24T06:17:38.184Z,99.30
2022-11-24T06:20:29.811Z,99.00
2022-11-24T06:23:18.569Z,98.80
2022-11-24T06:26:05.020Z,98.80
2022-11-24T06:28:51.252Z,99.00
2022-11-24T06:31:37.489Z,98.80
2022-11-24T06:34:23.837Z,98.80
2022-11-24T06:37:09.997Z,98.50
2022-11-24T06:39:56.157Z,98.40
2022-11-24T06:42:41.994Z,98.50
2022-11-24T06:45:28.235Z,98.20
2022-11-24T06:48:14.299Z,98.30
2022-11-24T06:51:01.662Z,98.10
2022-11-24T06:53:47.585Z,98.00
2022-11-24T06:56:34.054Z,98.10
2022-11-24T06:59:20.740Z,98.00
2022-11-24T07:02:07.061Z,97.90
2022-11-24T07:04:53.193Z,97.90
2022-11-24T07:07:39.038Z,98.10
2022-11-24T07:10:25.757Z,97.80
2022-11-24T07:13:12.053Z,97.90
2022-11-24T07:15:57.910Z,97.80
2022-11-24T07:18:45.934Z,97.60
2022-11-24T07:21:31.913Z,97.60
2022-11-24T07:24:18.017Z,97.40
2022-11-24T07:27:03.944Z,97.60
2022-11-24T07:29:49.956Z,97.50
2022-11-24T07:32:35.929Z,97.40
2022-11-24T07:35:22.077Z,97.30
2022-11-24T07:38:08.076Z,97.30
2022-11-24T07:40:54.175Z,97.10
2022-11-24T07:43:40.558Z,96.50
2022-11-24T07:46:26.645Z,95.90
2022-11-24T07:49:12.974Z,95.10
2022-11-24T07:51:58.843Z,94.70
2022-11-24T07:54:44.797Z,94.00
2022-11-24T07:57:31.072Z,93.30
2022-11-24T08:00:17.920Z,93.00
2022-11-24T08:03:03.956Z,93.20
2022-11-24T08:06:22.819Z,93.20
2022-11-24T08:09:03.826Z,93.40
2022-11-24T08:11:50.126Z,93.20
2022-11-24T08:14:36.245Z,93.00
2022-11-24T08:17:22.484Z,92.90
2022-11-24T08:20:09.739Z,93.00
2022-11-24T08:22:59.875Z,93.10
2022-11-24T08:25:46.025Z,93.20
2022-11-24T08:28:34.208Z,92.40
2022-11-24T08:31:20.337Z,92.50
2022-11-24T08:34:06.471Z,92.70
2022-11-24T08:36:52.828Z,93.30
2022-11-24T08:39:38.901Z,93.20
2022-11-24T08:42:24.909Z,93.10
2022-11-24T08:45:20.515Z,93.00
2022-11-24T08:48:07.083Z,93.40
2022-11-24T08:50:53.242Z,93.60
2022-11-24T08:53:39.713Z,93.50
2022-11-24T08:56:31.590Z,93.30
2022-11-24T08:59:18.322Z,93.30
2022-11-24T09:02:04.873Z,93.70
2022-11-24T09:04:51.264Z,93.60
2022-11-24T09:07:37.970Z,93.50
2022-11-24T09:10:24.313Z,93.50
2022-11-24T09:13:10.276Z,93.40
2022-11-24T09:15:56.454Z,93.00
2022-11-24T09:18:42.807Z,93.10
2022-11-24T09:21:30.082Z,93.20
2022-11-24T09:24:16.645Z,93.50
2022-11-24T09:27:03.105Z,93.10
2022-11-24T09:29:49.145Z,93.30
2022-11-24T09:32:35.125Z,92.70
2022-11-24T09:35:21.642Z,93.00
2022-11-24T09:38:07.461Z,92.40
2022-11-24T09:40:56.329Z,92.60
2022-11-24T09:43:55.318Z,92.50
2022-11-24T09:46:46.772Z,92.10
2022-11-24T09:49:49.869Z,92.50
2022-11-24T09:53:28.415Z,92.40
2022-11-24T09:56:24.835Z,92.20
2022-11-24T09:59:17.914Z,91.80
2022-11-24T10:02:12.353Z,91.60
2022-11-24T10:04:59.582Z,91.20
2022-11-24T10:08:07.109Z,91.10
2022-11-24T10:11:11.425Z,91.10
2022-11-24T10:14:35.357Z,91.30
2022-11-24T10:17:59.140Z,91.50
2022-11-24T10:20:51.513Z,92.20
2022-11-24T10:24:03.791Z,91.50
2022-11-24T10:27:24.112Z,91.60
2022-11-24T10:30:22.517Z,92.20
2022-11-24T10:33:18.473Z,93.40
2022-11-24T10:36:11.533Z,94.20
2022-11-24T10:39:30.253Z,95.00
2022-11-24T10:42:21.170Z,96.00
2022-11-24T10:45:16.009Z,96.90
2022-11-24T10:48:02.826Z,98.00
2022-11-24T10:50:48.845Z,98.60
2022-11-24T10:53:36.958Z,99.10
2022-11-24T10:56:22.948Z,99.10
2022-11-24T10:59:20.976Z,99.40
2022-11-24T11:02:33.844Z,99.90
2022-11-24T11:05:32.215Z,99.90
2022-11-24T11:08:21.524Z,99.90
2022-11-24T11:11:27.792Z,99.90
2022-11-24T11:14:28.458Z,99.70
2022-11-24T11:17:36.939Z,99.90
2022-11-24T11:20:32.132Z,99.40
2022-11-24T11:23:31.042Z,99.40
2022-11-24T11:26:21.450Z,99.50
2022-11-24T11:35:33.707Z,99.90
2022-11-24T11:38:21.442Z,99.90
2022-11-24T11:41:33.033Z,99.90
2022-11-24T11:44:40.782Z,99.90
2022-11-24T11:47:40.865Z,99.90
2022-11-24T11:50:32.262Z,99.90
2022-11-24T11:53:46.596Z,99.90
2022-11-24T11:56:45.221Z,99.90
2022-11-24T12:00:09.605Z,99.90
2022-11-24T12:03:17.260Z,99.90
2022-11-24T12:06:38.441Z,99.90
2022-11-24T12:09:43.996Z,99.90
2022-11-24T12:12:39.174Z,99.90
2022-11-24T12:15:31.827Z,99.90
2022-11-24T12:18:58.999Z,99.90
2022-11-24T12:22:07.930Z,99.90
2022-11-24T12:25:06.470Z,99.70
2022-11-24T12:28:13.260Z,99.70
2022-11-24T12:31:37.671Z,99.20
2022-11-24T12:34:32.810Z,99.40
2022-11-24T12:37:44.801Z,99.50
2022-11-24T12:44:28.427Z,99.20
2022-11-24T12:47:16.906Z,99.50
2022-11-24T12:50:19.285Z,99.00
2022-11-24T12:53:31.030Z,98.90
2022-11-24T12:56:23.119Z,99.20
2022-11-24T12:59:27.932Z,99.40
2022-11-24T13:02:50.658Z,98.90
2022-11-24T13:05:58.903Z,98.70
2022-11-24T13:08:45.493Z,99.00
2022-11-24T13:11:36.733Z,97.80
2022-11-24T13:14:23.327Z,98.40
2022-11-24T13:17:44.649Z,98.20
2022-11-24T13:20:40.521Z,97.20
2022-11-24T13:23:29.022Z,96.60
2022-11-24T13:26:28.162Z,96.00
2022-11-24T13:29:39.339Z,96.20
2022-11-24T13:32:31.206Z,96.60
2022-11-24T13:35:17.898Z,97.00
2022-11-24T13:38:24.203Z,97.10
2022-11-24T13:41:31.243Z,97.30
2022-11-24T13:44:23.675Z,97.40
2022-11-24T13:47:28.139Z,97.10
2022-11-24T13:50:22.936Z,97.40
2022-11-24T13:53:19.984Z,97.60
2022-11-24T13:56:12.796Z,97.80
2022-11-24T13:59:02.587Z,98.00
2022-11-24T14:01:57.164Z,97.10
2022-11-24T14:04:44.596Z,96.50
2022-11-24T14:07:31.919Z,95.30
2022-11-24T14:10:38.091Z,93.00
2022-11-24T14:13:28.744Z,91.90
2022-11-24T14:16:22.956Z,90.40
2022-11-24T14:19:18.856Z,91.40
2022-11-24T14:22:05.107Z,92.40
2022-11-24T14:24:56.956Z,93.40
2022-11-24T14:27:43.267Z,94.20
2022-11-24T14:30:29.240Z,95.00
2022-11-24T14:33:18.441Z,95.40
2022-11-24T14:36:04.869Z,94.70
2022-11-24T14:38:51.118Z,95.10
2022-11-24T14:41:37.601Z,95.20
2022-11-24T14:44:29.761Z,95.70
2022-11-24T14:47:32.083Z,95.90
2022-11-24T14:50:22.644Z,95.70
2022-11-24T14:53:15.089Z,95.90
2022-11-24T14:56:29.341Z,96.10
2022-11-24T14:59:22.693Z,95.90
2022-11-24T15:02:38.201Z,96.20
2022-11-24T15:05:25.601Z,96.00
2022-11-24T15:08:14.456Z,95.90
2022-11-24T15:11:03.037Z,95.90
2022-11-24T15:13:56.956Z,96.00
2022-11-24T15:16:43.246Z,96.20
2022-11-24T15:19:34.368Z,96.50
2022-11-24T15:22:29.616Z,96.70
2022-11-24T15:25:33.953Z,96.90
2022-11-24T15:28:25.934Z,97.30
2022-11-24T15:31:13.910Z,97.30
2022-11-24T15:34:00.054Z,97.70
2022-11-24T15:36:46.085Z,97.80
2022-11-24T15:39:32.334Z,97.70
2022-11-24T15:42:18.320Z,97.40
2022-11-24T15:45:04.881Z,97.60
2022-11-24T15:47:51.266Z,97.50
2022-11-24T15:50:37.763Z,97.60
2022-11-24T15:53:25.791Z,97.70
2022-11-24T15:56:22.363Z,97.70
2022-11-24T15:59:20.349Z,97.70
2022-11-24T16:02:09.195Z,98.00
2022-11-24T16:04:55.981Z,97.90
2022-11-24T16:07:42.571Z,97.60
2022-11-24T16:10:31.650Z,97.90
2022-11-24T16:13:18.183Z,97.80
2022-11-24T16:16:04.577Z,97.60
2022-11-24T16:18:50.967Z,97.70
2022-11-24T16:21:37.178Z,97.90
2022-11-24T16:24:23.020Z,98.30
2022-11-24T16:27:10.099Z,98.50
2022-11-24T16:29:56.314Z,98.80
2022-11-24T16:32:42.410Z,99.10
2022-11-24T16:35:28.557Z,99.30
2022-11-24T16:38:19.185Z,99.20
2022-11-24T16:41:05.445Z,99.10
2022-11-24T16:43:51.693Z,98.90
2022-11-24T16:46:38.105Z,98.50
2022-11-24T16:49:23.968Z,98.20
2022-11-24T16:52:10.061Z,98.00
2022-11-24T16:54:56.009Z,97.60
2022-11-24T16:57:42.134Z,98.00
2022-11-24T17:00:28.395Z,97.90
2022-11-24T17:03:14.495Z,98.10
2022-11-24T17:06:01.319Z,98.30
2022-11-24T17:08:47.782Z,98.40
2022-11-24T17:11:33.762Z,98.30
2022-11-24T17:14:19.658Z,98.30
2022-11-24T17:17:06.259Z,98.50
2022-11-24T17:19:52.391Z,98.80
2022-11-24T17:22:38.550Z,98.90
2022-11-24T17:25:24.608Z,99.20
2022-11-24T17:28:10.658Z,99.20
2022-11-24T17:30:57.204Z,99.30
2022-11-24T17:33:43.604Z,99.30
2022-11-24T17:36:31.505Z,99.30
2022-11-24T17:39:21.799Z,99.10
2022-11-24T17:42:10.836Z,99.00
2022-11-24T17:44:56.861Z,99.00
2022-11-24T17:47:42.721Z,99.00
2022-11-24T17:50:28.725Z,99.30
2022-11-24T17:53:14.996Z,99.40
2022-11-24T17:56:01.676Z,99.20
2022-11-24T17:58:47.858Z,99.10
2022-11-24T18:01:34.234Z,99.10
2022-11-24T18:04:20.488Z,99.10
2022-11-24T18:07:06.689Z,99.30
2022-11-24T18:09:52.649Z,98.90
2022-11-24T18:12:38.572Z,99.10
2022-11-24T18:15:25.348Z,98.90
2022-11-24T18:18:11.793Z,99.30
2022-11-24T18:20:59.712Z,99.50
2022-11-24T18:23:47.259Z,99.40
2022-11-24T18:26:33.400Z,99.30
2022-11-24T18:29:19.647Z,99.00
2022-11-24T18:32:06.474Z,99.10
2022-11-24T18:34:54.223Z,99.00
2022-11-24T18:37:44.443Z,98.50
2022-11-24T18:40:31.405Z,98.10
2022-11-24T18:43:18.155Z,98.20
2022-11-24T18:46:05.897Z,98.40
2022-11-24T18:48:53.235Z,98.40
2022-11-24T18:51:39.815Z,98.60
2022-11-24T18:54:28.404Z,98.40
2022-11-24T18:57:15.280Z,98.40
2022-11-24T19:00:02.329Z,98.30
2022-11-24T19:02:52.357Z,98.50
2022-11-24T19:05:41.110Z,98.70
2022-11-24T19:08:27.336Z,99.30
2022-11-24T19:11:19.244Z,99.40
2022-11-24T19:14:07.746Z,99.40
2022-11-24T19:16:55.304Z,99.00
2022-11-24T19:19:41.561Z,98.80
2022-11-24T19:22:27.918Z,98.90
2022-11-24T19:25:13.903Z,98.80
2022-11-24T19:27:59.821Z,99.60
2022-11-24T19:30:45.985Z,99.80
2022-11-24T19:33:32.918Z,99.80
2022-11-24T19:36:20.725Z,99.60
2022-11-24T19:39:07.179Z,99.00
2022-11-24T19:41:53.522Z,98.60
2022-11-24T19:44:39.480Z,98.70
2022-11-24T19:47:25.515Z,98.50
2022-11-24T19:50:12.083Z,98.70
2022-11-24T19:52:57.968Z,98.60
2022-11-24T19:55:43.844Z,98.90
2022-11-24T19:58:30.473Z,98.90
2022-11-24T20:01:22.486Z,98.40
2022-11-24T20:04:12.445Z,98.10
2022-11-24T20:06:58.554Z,98.20
2022-11-24T20:09:44.442Z,98.20
2022-11-24T20:12:32.454Z,98.50
2022-11-24T20:15:18.889Z,98.40
2022-11-24T20:18:05.302Z,98.40
2022-11-24T20:20:51.228Z,98.50
2022-11-24T20:23:37.993Z,98.50
2022-11-24T20:26:25.776Z,98.40
2022-11-24T20:29:13.819Z,98.20
2022-11-24T20:31:59.854Z,98.50
2022-11-24T20:34:46.522Z,98.40
2022-11-24T20:37:32.740Z,98.80
2022-11-24T20:40:20.161Z,98.10
2022-11-24T20:43:06.302Z,97.90
2022-11-24T20:45:52.260Z,98.20
2022-11-24T20:48:39.085Z,98.30
2022-11-24T20:51:28.712Z,98.40
2022-11-24T20:54:16.728Z,98.80
2022-11-24T20:57:03.049Z,98.90
2022-11-24T20:59:50.019Z,98.90
2022-11-24T21:02:36.060Z,98.10
2022-11-24T21:05:21.914Z,97.60
2022-11-24T21:08:08.027Z,97.20
2022-11-24T21:10:56.472Z,97.80
2022-11-24T21:13:44.929Z,98.40
2022-11-24T21:16:33.571Z,99.10
2022-11-24T21:19:22.635Z,99.30
2022-11-24T21:22:08.825Z,99.30
2022-11-24T21:24:54.731Z,99.10
2022-11-24T21:27:40.803Z,99.00
2022-11-24T21:30:26.952Z,98.70
2022-11-24T21:33:13.257Z,98.40
2022-11-24T21:36:03.169Z,98.40
2022-11-24T21:38:54.599Z,98.40
2022-11-24T21:41:41.269Z,98.10
2022-11-24T21:44:29.639Z,97.80
2022-11-24T21:47:15.760Z,97.80
2022-11-24T21:50:01.629Z,97.90
2022-11-24T21:52:47.630Z,98.40
2022-11-24T21:55:33.511Z,98.60
2022-11-24T21:58:19.572Z,98.40
2022-11-24T22:01:11.156Z,98.40
2022-11-24T22:03:57.654Z,98.50
2022-11-24T22:06:45.122Z,97.70
2022-11-24T22:09:31.409Z,97.70
2022-11-24T22:12:17.466Z,97.60
2022-11-24T22:15:03.957Z,97.40
2022-11-24T22:17:50.180Z,97.80
2022-11-24T22:20:36.196Z,97.50
2022-11-24T22:23:22.440Z,98.20
2022-11-24T22:26:12.837Z,98.60
2022-11-24T22:28:59.119Z,98.40
2022-11-24T22:31:45.249Z,98.60
2022-11-24T22:34:31.327Z,98.40
2022-11-24T22:37:17.326Z,97.90
2022-11-24T22:40:03.768Z,97.60
2022-11-24T22:42:50.649Z,96.80
2022-11-24T22:45:36.393Z,97.30
2022-11-24T22:48:22.511Z,97.30
2022-11-24T22:51:13.472Z,97.80
2022-11-24T22:54:01.733Z,98.00
2022-11-24T22:56:48.036Z,98.00
2022-11-24T22:59:34.323Z,97.70
2022-11-24T23:02:20.354Z,97.60
2022-11-24T23:05:06.908Z,97.50
2022-11-24T23:07:52.932Z,97.90
2022-11-24T23:10:39.301Z,98.00
2022-11-24T23:13:25.455Z,98.30
2022-11-24T23:16:17.414Z,98.20
2022-11-24T23:19:04.423Z,98.10
2022-11-24T23:21:50.414Z,98.10
2022-11-24T23:24:38.176Z,97.90
2022-11-24T23:27:24.315Z,98.10
2022-11-24T23:30:10.543Z,97.80
2022-11-24T23:32:56.661Z,97.70
2022-11-24T23:35:42.704Z,97.90
2022-11-24T23:38:30.204Z,97.90
2022-11-24T23:41:18.991Z,98.20
2022-11-24T23:44:05.928Z,98.50
2022-11-24T23:46:51.892Z,98.50
2022-11-24T23:49:38.115Z,98.40
2022-11-24T23:52:24.158Z,98.30
2022-11-24T23:55:10.095Z,98.60
2022-11-24T23:57:56.245Z,98.60
